Terminal Aerodrome Forecast
Issued by NWS Jackson, MS

Home | Current Version | Previous Version | Text Only | Print | Product List | Glossary On
Versions: 1 2 3 4 5 6 7 8 9 10 11 12 13 14
445
FTUS44 KJAN 271743
TAFHBG
TAF
KHBG 271743Z 2718/2818 07006KT P6SM SHRA SCT017 BKN024 OVC070
     FM271900 VRB05KT P6SM VCSH BKN035 OVC100
     FM280100 15006KT P6SM BKN025
     FM280500 17007KT 4SM BR OVC007
     FM281600 18015KT P6SM BKN018=

USA.gov is the U.S. government's official web portal to all federal, state and local government web resources and services.